createdAt,value
2017-08-20T00:00:05.848Z,1013.03
2017-08-20T00:01:05.827Z,1013.04
2017-08-20T00:02:05.807Z,1013.04
2017-08-20T00:03:05.782Z,1013.05
2017-08-20T00:04:05.811Z,1013.05
2017-08-20T00:05:05.738Z,1013.1
2017-08-20T00:06:05.718Z,1013.1
2017-08-20T00:07:05.695Z,1013.04
2017-08-20T00:08:05.674Z,1013.03
2017-08-20T00:09:05.652Z,1013.07
2017-08-20T00:10:05.631Z,1013.1
2017-08-20T00:11:05.611Z,1013.1
2017-08-20T00:12:05.584Z,1013.07
2017-08-20T00:13:05.563Z,1013.06
2017-08-20T00:14:05.543Z,1013.05
2017-08-20T00:15:05.519Z,1013.1
2017-08-20T00:16:05.499Z,1013.05
2017-08-20T00:17:05.479Z,1013.05
2017-08-20T00:18:05.452Z,1013.09
2017-08-20T00:19:05.434Z,1013.03
2017-08-20T00:20:05.411Z,1013.05
2017-08-20T00:21:05.390Z,1013.04
2017-08-20T00:22:05.367Z,1013.08
2017-08-20T00:23:05.345Z,1013.09
2017-08-20T00:24:05.320Z,1013.06
2017-08-20T00:25:05.303Z,1013.03
2017-08-20T00:26:05.280Z,1013.07
2017-08-20T00:27:05.258Z,1013.09
2017-08-20T00:28:05.239Z,1013.14
2017-08-20T00:29:05.212Z,1013.1
2017-08-20T00:30:05.190Z,1013.09
2017-08-20T00:31:05.170Z,1013.14
2017-08-20T00:32:05.151Z,1013.11
2017-08-20T00:33:05.125Z,1013.11
2017-08-20T00:34:05.103Z,1013.14
2017-08-20T00:35:05.083Z,1013.1
2017-08-20T00:36:05.074Z,1013.11
2017-08-20T00:37:05.039Z,1013.14
2017-08-20T00:38:05.015Z,1013.11
2017-08-20T00:39:04.994Z,1013.15
2017-08-20T00:40:04.973Z,1013.15
2017-08-20T00:41:04.954Z,1013.21
2017-08-20T00:42:04.929Z,1013.16
2017-08-20T00:43:04.909Z,1013.19
2017-08-20T00:44:04.884Z,1013.2
2017-08-20T00:45:04.865Z,1013.22
2017-08-20T00:46:04.841Z,1013.17
2017-08-20T00:47:04.817Z,1013.19
2017-08-20T00:48:04.796Z,1013.18
2017-08-20T00:49:04.776Z,1013.24
2017-08-20T00:50:04.751Z,1013.23
2017-08-20T00:51:04.732Z,1013.26
2017-08-20T00:52:04.710Z,1013.25
2017-08-20T00:53:04.689Z,1013.22
2017-08-20T00:54:04.660Z,1013.16
2017-08-20T00:55:04.642Z,1013.17
2017-08-20T00:56:04.622Z,1013.21
2017-08-20T00:57:04.600Z,1013.18
2017-08-20T00:58:04.577Z,1013.19
2017-08-20T00:59:04.555Z,1013.23
2017-08-20T01:00:04.533Z,1013.18
2017-08-20T01:01:04.512Z,1013.17
2017-08-20T01:02:04.488Z,1013.19
2017-08-20T01:03:04.467Z,1013.16
2017-08-20T01:04:04.444Z,1013.18
2017-08-20T01:05:04.425Z,1013.12
2017-08-20T01:06:04.399Z,1013.16
2017-08-20T01:07:04.380Z,1013.14
2017-08-20T01:08:04.357Z,1013.09
2017-08-20T01:09:04.340Z,1013.1
2017-08-20T01:10:04.318Z,1013.1
2017-08-20T01:11:04.295Z,1013.08
2017-08-20T01:12:04.270Z,1013.09
2017-08-20T01:13:04.252Z,1013.13
2017-08-20T01:14:04.225Z,1013.08
2017-08-20T01:15:04.205Z,1013.1
2017-08-20T01:16:04.184Z,1013.14
2017-08-20T01:17:04.162Z,1013.17
2017-08-20T01:18:04.141Z,1013.16
2017-08-20T01:19:04.118Z,1013.12
2017-08-20T01:20:04.096Z,1013.16
2017-08-20T01:21:04.073Z,1013.15
2017-08-20T01:22:04.050Z,1013.08
2017-08-20T01:23:04.029Z,1013.11
2017-08-20T01:24:04.007Z,1013.12
2017-08-20T01:25:03.991Z,1013.11
2017-08-20T01:26:03.965Z,1013.07
2017-08-20T01:27:03.940Z,1013.08
2017-08-20T01:28:03.918Z,1013.07
2017-08-20T01:29:03.947Z,1013.05
2017-08-20T01:30:03.874Z,1013.07
2017-08-20T01:31:03.850Z,1013.15
2017-08-20T01:32:03.833Z,1013.14
2017-08-20T01:33:03.808Z,1013.08
2017-08-20T01:34:03.787Z,1013.08
2017-08-20T01:35:03.777Z,1013.1
2017-08-20T01:36:03.740Z,1013.17
2017-08-20T01:37:03.718Z,1013.11
2017-08-20T01:38:03.698Z,1013.13
2017-08-20T01:39:03.679Z,1013.15
2017-08-20T01:40:03.653Z,1013.21
2017-08-20T01:41:03.632Z,1013.17
2017-08-20T01:42:03.611Z,1013.18
2017-08-20T01:43:03.590Z,1013.21
2017-08-20T01:44:03.567Z,1013.19
2017-08-20T01:45:03.544Z,1013.15
2017-08-20T01:46:03.521Z,1013.15
2017-08-20T01:47:03.498Z,1013.13
2017-08-20T01:48:03.480Z,1013.1
2017-08-20T01:49:03.457Z,1013.07
2017-08-20T01:50:03.433Z,1013.05
2017-08-20T01:51:03.410Z,1013.12
2017-08-20T01:52:03.389Z,1013.12
2017-08-20T01:53:03.368Z,1013.12
2017-08-20T01:54:03.345Z,1013.11
2017-08-20T01:55:03.323Z,1013.13
2017-08-20T01:56:03.305Z,1013.19
2017-08-20T01:57:03.277Z,1013.19
2017-08-20T01:58:03.256Z,1013.21
2017-08-20T01:59:03.235Z,1013.16
2017-08-20T02:00:03.213Z,1013.18
2017-08-20T02:01:03.192Z,1013.15
2017-08-20T02:02:03.169Z,1013.17
2017-08-20T02:03:03.146Z,1013.16
2017-08-20T02:04:03.126Z,1013.22
2017-08-20T02:05:03.102Z,1013.26
2017-08-20T02:06:03.079Z,1013.2
2017-08-20T02:07:03.063Z,1013.25
2017-08-20T02:08:03.032Z,1013.24
2017-08-20T02:09:03.016Z,1013.22
2017-08-20T02:10:02.991Z,1013.2
2017-08-20T02:11:02.970Z,1013.28
2017-08-20T02:12:02.950Z,1013.26
2017-08-20T02:13:02.925Z,1013.3
2017-08-20T02:14:02.955Z,1013.27
2017-08-20T02:15:02.882Z,1013.23
2017-08-20T02:16:02.861Z,1013.25
2017-08-20T02:17:02.837Z,1013.25
2017-08-20T02:18:02.816Z,1013.27
2017-08-20T02:19:02.794Z,1013.26
2017-08-20T02:20:02.772Z,1013.25
2017-08-20T02:21:02.750Z,1013.24
2017-08-20T02:22:02.731Z,1013.23
2017-08-20T02:23:02.710Z,1013.26
2017-08-20T02:24:02.684Z,1013.27
2017-08-20T02:25:02.664Z,1013.22
2017-08-20T02:26:02.638Z,1013.2
2017-08-20T02:27:02.615Z,1013.24
2017-08-20T02:28:02.596Z,1013.21
2017-08-20T02:29:02.573Z,1013.28
2017-08-20T02:30:02.549Z,1013.25
2017-08-20T02:31:02.528Z,1013.23
2017-08-20T02:32:02.507Z,1013.27
2017-08-20T02:33:02.485Z,1013.28
2017-08-20T02:34:02.465Z,1013.25
2017-08-20T02:35:02.441Z,1013.27
2017-08-20T02:36:02.420Z,1013.26
2017-08-20T02:37:02.395Z,1013.26
2017-08-20T02:38:02.374Z,1013.23
2017-08-20T02:39:02.355Z,1013.2
2017-08-20T02:40:02.331Z,1013.23
2017-08-20T02:41:02.310Z,1013.18
2017-08-20T02:42:02.291Z,1013.23
2017-08-20T02:43:02.278Z,1013.22
2017-08-20T02:44:02.248Z,1013.24
2017-08-20T02:45:02.222Z,1013.29
2017-08-20T02:46:02.201Z,1013.3
2017-08-20T02:47:02.177Z,1013.3
2017-08-20T02:48:02.156Z,1013.34
2017-08-20T02:49:02.141Z,1013.35
2017-08-20T02:50:02.115Z,1013.4
2017-08-20T02:51:02.090Z,1013.39
2017-08-20T02:52:02.067Z,1013.39
2017-08-20T02:53:02.048Z,1013.31
2017-08-20T02:54:02.024Z,1013.31
2017-08-20T02:55:02.004Z,1013.29
2017-08-20T02:56:01.982Z,1013.29
2017-08-20T02:57:01.959Z,1013.3
2017-08-20T02:58:01.934Z,1013.32
2017-08-20T02:59:01.918Z,1013.33
2017-08-20T03:00:01.893Z,1013.34
2017-08-20T03:01:01.870Z,1013.32
2017-08-20T03:02:01.855Z,1013.39
2017-08-20T03:03:01.825Z,1013.39
2017-08-20T03:04:01.854Z,1013.36
2017-08-20T03:05:01.785Z,1013.37
2017-08-20T03:06:01.760Z,1013.39
2017-08-20T03:07:01.739Z,1013.38
2017-08-20T03:08:01.717Z,1013.41
2017-08-20T03:09:01.697Z,1013.4
2017-08-20T03:10:01.673Z,1013.4
2017-08-20T03:11:01.652Z,1013.42
2017-08-20T03:12:01.631Z,1013.41
2017-08-20T03:13:01.607Z,1013.42
2017-08-20T03:14:01.585Z,1013.38
2017-08-20T03:15:01.565Z,1013.39
2017-08-20T03:16:01.541Z,1013.48
2017-08-20T03:17:01.521Z,1013.45
2017-08-20T03:18:01.497Z,1013.44
2017-08-20T03:19:01.476Z,1013.45
2017-08-20T03:20:01.455Z,1013.43
2017-08-20T03:21:01.431Z,1013.52
2017-08-20T03:22:01.412Z,1013.49
2017-08-20T03:23:01.393Z,1013.51
2017-08-20T03:24:01.370Z,1013.53
2017-08-20T03:25:01.345Z,1013.53
2017-08-20T03:26:01.322Z,1013.54
2017-08-20T03:27:01.303Z,1013.55
2017-08-20T03:28:01.279Z,1013.52
2017-08-20T03:29:01.253Z,1013.55
2017-08-20T03:30:01.235Z,1013.51
2017-08-20T03:31:01.224Z,1013.49
2017-08-20T03:32:01.192Z,1013.51
2017-08-20T03:33:01.175Z,1013.46
2017-08-20T03:34:01.151Z,1013.45
2017-08-20T03:35:01.126Z,1013.45
2017-08-20T03:36:01.105Z,1013.46
2017-08-20T03:37:01.082Z,1013.51
2017-08-20T03:38:01.063Z,1013.49
2017-08-20T03:39:01.037Z,1013.51
2017-08-20T03:40:01.065Z,1013.5
2017-08-20T03:41:00.995Z,1013.55
2017-08-20T03:42:00.976Z,1013.54
2017-08-20T03:43:00.951Z,1013.59
2017-08-20T03:44:00.930Z,1013.59
2017-08-20T03:45:00.908Z,1013.66
2017-08-20T03:46:00.887Z,1013.69
2017-08-20T03:47:00.864Z,1013.72
2017-08-20T03:48:00.843Z,1013.76
2017-08-20T03:49:00.821Z,1013.82
2017-08-20T03:50:00.801Z,1013.77
2017-08-20T03:51:00.777Z,1013.72
2017-08-20T03:52:00.761Z,1013.74
2017-08-20T03:53:00.733Z,1013.74
2017-08-20T03:54:00.713Z,1013.78
2017-08-20T03:55:00.692Z,1013.82
2017-08-20T03:56:00.669Z,1013.81
2017-08-20T03:57:00.645Z,1013.84
2017-08-20T03:58:00.624Z,1013.81
2017-08-20T03:59:00.602Z,1013.79
2017-08-20T04:00:00.579Z,1013.81
2017-08-20T04:01:00.560Z,1013.79
2017-08-20T04:02:00.536Z,1013.77
2017-08-20T04:03:00.514Z,1013.77
2017-08-20T04:04:00.498Z,1013.74
2017-08-20T04:05:00.470Z,1013.75
2017-08-20T04:06:00.448Z,1013.74
2017-08-20T04:07:00.425Z,1013.75
2017-08-20T04:08:00.404Z,1013.77
2017-08-20T04:09:00.383Z,1013.76
2017-08-20T04:10:00.361Z,1013.74
2017-08-20T04:11:00.341Z,1013.78
2017-08-20T04:12:00.320Z,1013.8
2017-08-20T04:13:00.294Z,1013.77
2017-08-20T04:14:00.525Z,1013.72
2017-08-20T04:15:00.252Z,1013.75
2017-08-20T04:16:00.229Z,1013.78
2017-08-20T04:17:00.211Z,1013.83
2017-08-20T04:18:00.192Z,1013.77
2017-08-20T04:19:00.165Z,1013.81
2017-08-20T04:20:00.144Z,1013.83
2017-08-20T04:21:00.123Z,1013.81
2017-08-20T04:22:00.101Z,1013.81
2017-08-20T04:23:00.078Z,1013.83
2017-08-20T04:24:00.055Z,1013.88
2017-08-20T04:25:00.033Z,1013.89
2017-08-20T04:26:00.012Z,1013.87
2017-08-20T04:26:59.989Z,1013.87
2017-08-20T04:27:59.967Z,1013.84
2017-08-20T04:28:59.947Z,1013.88
2017-08-20T04:29:59.929Z,1013.83
2017-08-20T04:30:59.902Z,1013.91
2017-08-20T04:31:59.883Z,1013.92
2017-08-20T04:32:59.859Z,1013.87
2017-08-20T04:33:59.835Z,1013.92
2017-08-20T04:34:59.815Z,1013.91
2017-08-20T04:35:59.795Z,1013.91
2017-08-20T04:36:59.773Z,1013.9
2017-08-20T04:37:59.750Z,1013.92
2017-08-20T04:38:59.728Z,1013.93
2017-08-20T04:39:59.703Z,1013.93
2017-08-20T04:40:59.689Z,1013.97
2017-08-20T04:41:59.662Z,1013.94
2017-08-20T04:42:59.644Z,1013.95
2017-08-20T04:43:59.673Z,1013.92
2017-08-20T04:44:59.597Z,1013.97
2017-08-20T04:45:59.580Z,1014.02
2017-08-20T04:46:59.553Z,1014.03
2017-08-20T04:47:59.531Z,1014.04
2017-08-20T04:48:59.512Z,1014.07
2017-08-20T04:49:59.487Z,1014.05
2017-08-20T04:50:59.466Z,1014.04
2017-08-20T04:51:59.449Z,1014.04
2017-08-20T04:52:59.424Z,1013.99
2017-08-20T04:53:59.404Z,1014.02
2017-08-20T04:54:59.378Z,1013.98
2017-08-20T04:55:59.356Z,1014
2017-08-20T04:56:59.334Z,1014.06
2017-08-20T04:57:59.317Z,1014.04
2017-08-20T04:58:59.292Z,1014.05
2017-08-20T04:59:59.271Z,1014.06
2017-08-20T05:00:59.246Z,1014.11
2017-08-20T05:01:59.223Z,1014.13
2017-08-20T05:02:59.208Z,1014.05
2017-08-20T05:03:59.183Z,1014.09
2017-08-20T05:04:59.160Z,1014.14
2017-08-20T05:05:59.139Z,1014.12
2017-08-20T05:06:59.118Z,1014.12
2017-08-20T05:07:59.094Z,1014.15
2017-08-20T05:08:59.076Z,1014.14
2017-08-20T05:09:59.054Z,1014.17
2017-08-20T05:10:59.031Z,1014.19
2017-08-20T05:11:59.006Z,1014.19
2017-08-20T05:12:58.986Z,1014.24
2017-08-20T05:13:58.966Z,1014.27
2017-08-20T05:14:58.948Z,1014.25
2017-08-20T05:15:58.931Z,1014.26
2017-08-20T05:16:58.905Z,1014.27
2017-08-20T05:17:58.880Z,1014.24
2017-08-20T05:18:58.858Z,1014.27
2017-08-20T05:19:58.838Z,1014.27
2017-08-20T05:20:58.815Z,1014.28
2017-08-20T05:21:58.792Z,1014.3
2017-08-20T05:22:58.765Z,1014.33
2017-08-20T05:23:58.756Z,1014.3
2017-08-20T05:24:58.726Z,1014.29
2017-08-20T05:25:58.707Z,1014.27
2017-08-20T05:26:58.685Z,1014.21
2017-08-20T05:27:58.663Z,1014.27
2017-08-20T05:28:58.641Z,1014.26
2017-08-20T05:29:58.620Z,1014.22
2017-08-20T05:30:58.598Z,1014.22
2017-08-20T05:31:58.578Z,1014.3
2017-08-20T05:32:58.554Z,1014.27
2017-08-20T05:33:58.533Z,1014.27
2017-08-20T05:34:58.512Z,1014.25
2017-08-20T05:35:58.489Z,1014.26
2017-08-20T05:36:58.466Z,1014.31
2017-08-20T05:37:58.700Z,1014.3
2017-08-20T05:38:58.425Z,1014.32
2017-08-20T05:39:58.404Z,1014.31
2017-08-20T05:40:58.387Z,1014.31
2017-08-20T05:41:58.362Z,1014.31
2017-08-20T05:42:58.341Z,1014.31
2017-08-20T05:43:58.316Z,1014.36
2017-08-20T05:44:58.296Z,1014.4
2017-08-20T05:45:58.274Z,1014.41
2017-08-20T05:46:58.256Z,1014.45
2017-08-20T05:47:58.282Z,1014.42
2017-08-20T05:48:58.213Z,1014.42
2017-08-20T05:49:58.490Z,1014.47
2017-08-20T05:50:58.169Z,1014.44
2017-08-20T05:51:58.145Z,1014.42
2017-08-20T05:52:58.127Z,1014.46
2017-08-20T05:53:58.105Z,1014.47
2017-08-20T05:54:58.084Z,1014.47
2017-08-20T05:55:58.065Z,1014.49
2017-08-20T05:56:58.041Z,1014.42
2017-08-20T05:57:58.019Z,1014.47
2017-08-20T05:58:57.997Z,1014.45
2017-08-20T05:59:57.974Z,1014.4
2017-08-20T06:00:57.954Z,1014.4
2017-08-20T06:01:57.933Z,1014.44
2017-08-20T06:02:57.911Z,1014.45
2017-08-20T06:03:57.890Z,1014.49
2017-08-20T06:04:57.872Z,1014.49
2017-08-20T06:05:57.849Z,1014.55
2017-08-20T06:06:57.831Z,1014.51
2017-08-20T06:07:57.806Z,1014.54
2017-08-20T06:08:57.783Z,1014.61
2017-08-20T06:09:57.763Z,1014.58
2017-08-20T06:10:57.746Z,1014.6
2017-08-20T06:11:57.726Z,1014.65
2017-08-20T06:12:57.698Z,1014.62
2017-08-20T06:13:57.679Z,1014.67
2017-08-20T06:14:57.656Z,1014.62
2017-08-20T06:15:57.634Z,1014.65
2017-08-20T06:16:57.617Z,1014.69
2017-08-20T06:17:57.594Z,1014.65
2017-08-20T06:18:57.573Z,1014.63
2017-08-20T06:19:57.552Z,1014.62
2017-08-20T06:20:57.532Z,1014.64
2017-08-20T06:21:57.509Z,1014.65
2017-08-20T06:22:57.490Z,1014.68
2017-08-20T06:23:57.466Z,1014.64
2017-08-20T06:24:57.445Z,1014.7
2017-08-20T06:25:57.428Z,1014.71
2017-08-20T06:26:57.405Z,1014.67
2017-08-20T06:27:57.388Z,1014.67
2017-08-20T06:28:57.366Z,1014.7
2017-08-20T06:29:57.342Z,1014.75
2017-08-20T06:30:57.320Z,1014.71
2017-08-20T06:31:57.299Z,1014.71
2017-08-20T06:32:57.282Z,1014.69
2017-08-20T06:33:57.259Z,1014.68
2017-08-20T06:34:57.237Z,1014.77
2017-08-20T06:35:57.220Z,1014.78
2017-08-20T06:36:57.196Z,1014.79
2017-08-20T06:37:57.175Z,1014.75
2017-08-20T06:38:57.155Z,1014.84
2017-08-20T06:39:57.133Z,1014.82
2017-08-20T06:40:57.118Z,1014.82
2017-08-20T06:41:57.428Z,1014.81
2017-08-20T06:42:57.412Z,1014.86
2017-08-20T06:43:57.054Z,1014.86
2017-08-20T06:44:57.033Z,1014.78
2017-08-20T06:45:57.009Z,1014.8
2017-08-20T06:46:56.985Z,1014.79
2017-08-20T06:47:56.967Z,1014.8
2017-08-20T06:48:56.946Z,1014.74
2017-08-20T06:49:56.927Z,1014.85
2017-08-20T06:50:56.909Z,1014.77
2017-08-20T06:51:56.890Z,1014.77
2017-08-20T06:52:56.866Z,1014.8
2017-08-20T06:53:56.843Z,1014.83
2017-08-20T06:54:56.825Z,1014.81
2017-08-20T06:55:56.804Z,1014.82
2017-08-20T06:56:56.785Z,1014.82
2017-08-20T06:57:56.765Z,1014.87
2017-08-20T06:58:56.744Z,1014.91
2017-08-20T06:59:56.725Z,1014.9
2017-08-20T07:00:56.704Z,1014.92
2017-08-20T07:01:56.680Z,1014.92
2017-08-20T07:02:56.667Z,1014.97
2017-08-20T07:03:56.645Z,1014.98
2017-08-20T07:04:56.627Z,1014.99
2017-08-20T07:05:56.604Z,1014.99
2017-08-20T07:06:56.597Z,1015.02
2017-08-20T07:07:56.565Z,1015
2017-08-20T07:08:56.556Z,1014.99
2017-08-20T07:09:56.528Z,1015.07
2017-08-20T07:10:56.508Z,1015.08
2017-08-20T07:11:56.489Z,1015.09
2017-08-20T07:12:56.474Z,1014.99
2017-08-20T07:13:56.468Z,1015.12
2017-08-20T07:14:56.435Z,1015.07
2017-08-20T07:15:56.420Z,1015.1
2017-08-20T07:16:56.400Z,1015.12
2017-08-20T07:17:56.382Z,1015.09
2017-08-20T07:18:56.362Z,1015.09
2017-08-20T07:19:56.347Z,1015.15
2017-08-20T07:20:56.338Z,1015.1
2017-08-20T07:21:56.316Z,1015.06
2017-08-20T07:22:56.296Z,1015.12
2017-08-20T07:23:56.276Z,1015.09
2017-08-20T07:24:56.260Z,1015.09
2017-08-20T07:25:56.243Z,1015.1
2017-08-20T07:26:56.229Z,1015.15
2017-08-20T07:27:56.261Z,1015.11
2017-08-20T07:28:56.200Z,1015.12
2017-08-20T07:29:56.177Z,1015.13
2017-08-20T07:30:56.160Z,1015.14
2017-08-20T07:31:56.146Z,1015.13
2017-08-20T07:32:56.127Z,1015.17
2017-08-20T07:33:56.114Z,1015.19
2017-08-20T07:34:56.102Z,1015.12
2017-08-20T07:35:56.082Z,1015.13
2017-08-20T07:36:56.066Z,1015.11
2017-08-20T07:37:56.054Z,1015.11
2017-08-20T07:38:56.036Z,1015.15
2017-08-20T07:39:56.019Z,1015.2
2017-08-20T07:40:56.010Z,1015.21
2017-08-20T07:41:55.990Z,1015.19
2017-08-20T07:42:55.976Z,1015.15
2017-08-20T07:43:55.960Z,1015.21
2017-08-20T07:44:55.945Z,1015.25
2017-08-20T07:45:55.929Z,1015.2
2017-08-20T07:46:55.914Z,1015.18
2017-08-20T07:47:55.905Z,1015.25
2017-08-20T07:48:55.891Z,1015.26
2017-08-20T07:49:55.872Z,1015.27
2017-08-20T07:50:55.858Z,1015.23
2017-08-20T07:51:55.842Z,1015.24
2017-08-20T07:52:55.828Z,1015.24
2017-08-20T07:53:55.847Z,1015.31
2017-08-20T07:54:55.802Z,1015.39
2017-08-20T07:55:55.786Z,1015.41
2017-08-20T07:56:55.768Z,1015.45
2017-08-20T07:57:55.754Z,1015.4
2017-08-20T07:58:55.766Z,1015.42
2017-08-20T07:59:55.774Z,1015.41
2017-08-20T08:00:55.713Z,1015.43
2017-08-20T08:01:55.696Z,1015.43
2017-08-20T08:02:55.710Z,1015.43
2017-08-20T08:03:55.664Z,1015.41
2017-08-20T08:04:55.650Z,1015.35
2017-08-20T08:05:55.635Z,1015.41
2017-08-20T08:06:55.672Z,1015.48
2017-08-20T08:07:55.607Z,1015.41
2017-08-20T08:08:55.596Z,1015.47
2017-08-20T08:09:55.580Z,1015.43
2017-08-20T08:10:55.568Z,1015.45
2017-08-20T08:11:55.548Z,1015.46
2017-08-20T08:12:55.531Z,1015.39
2017-08-20T08:13:55.517Z,1015.4
2017-08-20T08:14:55.513Z,1015.37
2017-08-20T08:15:55.499Z,1015.37
2017-08-20T08:16:55.477Z,1015.37
2017-08-20T08:17:55.465Z,1015.35
2017-08-20T08:18:55.456Z,1015.38
2017-08-20T08:19:55.444Z,1015.37
2017-08-20T08:20:55.428Z,1015.4
2017-08-20T08:21:55.422Z,1015.4
2017-08-20T08:22:55.402Z,1015.4
2017-08-20T08:23:55.441Z,1015.39
2017-08-20T08:24:55.380Z,1015.4
2017-08-20T08:25:55.372Z,1015.4
2017-08-20T08:26:55.359Z,1015.39
2017-08-20T08:27:55.346Z,1015.37
2017-08-20T08:28:55.332Z,1015.51
2017-08-20T08:29:55.322Z,1015.42
2017-08-20T08:30:55.313Z,1015.41
2017-08-20T08:31:55.297Z,1015.47
2017-08-20T08:32:55.288Z,1015.51
2017-08-20T08:33:55.277Z,1015.54
2017-08-20T08:34:55.260Z,1015.56
2017-08-20T08:35:55.249Z,1015.53
2017-08-20T08:36:55.235Z,1015.55
2017-08-20T08:37:55.223Z,1015.54
2017-08-20T08:38:55.209Z,1015.57
2017-08-20T08:39:55.200Z,1015.51
2017-08-20T08:40:55.186Z,1015.56
2017-08-20T08:41:55.175Z,1015.56
2017-08-20T08:42:55.164Z,1015.59
2017-08-20T08:43:55.165Z,1015.62
2017-08-20T08:44:55.141Z,1015.57
2017-08-20T08:45:55.132Z,1015.6
2017-08-20T08:46:55.121Z,1015.66
2017-08-20T08:47:55.111Z,1015.67
2017-08-20T08:48:55.100Z,1015.63
2017-08-20T08:49:55.103Z,1015.62
2017-08-20T08:50:55.105Z,1015.57
2017-08-20T08:51:55.071Z,1015.58
2017-08-20T08:52:55.062Z,1015.59
2017-08-20T08:53:55.051Z,1015.61
2017-08-20T08:54:55.041Z,1015.6
2017-08-20T08:55:55.034Z,1015.59
2017-08-20T08:56:55.024Z,1015.55
2017-08-20T08:57:55.014Z,1015.57
2017-08-20T08:58:55.004Z,1015.6
2017-08-20T08:59:54.995Z,1015.61
2017-08-20T09:00:54.984Z,1015.6
2017-08-20T09:01:54.978Z,1015.61
2017-08-20T09:02:54.962Z,1015.58
2017-08-20T09:03:54.954Z,1015.59
2017-08-20T09:04:54.943Z,1015.56
2017-08-20T09:05:54.934Z,1015.59
2017-08-20T09:06:54.922Z,1015.57
2017-08-20T09:07:54.919Z,1015.62
2017-08-20T09:08:54.902Z,1015.63
2017-08-20T09:09:54.895Z,1015.7
2017-08-20T09:10:54.880Z,1015.71
2017-08-20T09:11:54.870Z,1015.7
2017-08-20T09:12:54.855Z,1015.77
2017-08-20T09:13:54.842Z,1015.82
2017-08-20T09:14:54.833Z,1015.69
2017-08-20T09:15:54.821Z,1015.71
2017-08-20T09:16:54.806Z,1015.71
2017-08-20T09:17:54.794Z,1015.68
2017-08-20T09:18:54.781Z,1015.7
2017-08-20T09:19:54.771Z,1015.77
2017-08-20T09:20:54.783Z,1015.7
2017-08-20T09:21:54.748Z,1015.75
2017-08-20T09:22:54.737Z,1015.7
2017-08-20T09:23:54.778Z,1015.73
2017-08-20T09:24:54.719Z,1015.78
2017-08-20T09:25:54.706Z,1015.79
2017-08-20T09:26:54.695Z,1015.74
2017-08-20T09:27:54.685Z,1015.77
2017-08-20T09:28:54.676Z,1015.76
2017-08-20T09:29:54.662Z,1015.76
2017-08-20T09:30:54.649Z,1015.86
2017-08-20T09:31:54.638Z,1015.82
2017-08-20T09:32:54.628Z,1015.76
2017-08-20T09:33:54.615Z,1015.77
2017-08-20T09:34:54.600Z,1015.78
2017-08-20T09:35:54.592Z,1015.78
2017-08-20T09:36:54.575Z,1015.79
2017-08-20T09:37:54.561Z,1015.73
2017-08-20T09:38:54.550Z,1015.7
2017-08-20T09:39:54.586Z,1015.72
2017-08-20T09:40:54.524Z,1015.7
2017-08-20T09:41:54.514Z,1015.74
2017-08-20T09:42:54.500Z,1015.73
2017-08-20T09:43:54.488Z,1015.76
2017-08-20T09:44:54.471Z,1015.71
2017-08-20T09:45:54.456Z,1015.71
2017-08-20T09:46:54.444Z,1015.7
2017-08-20T09:47:54.429Z,1015.7
2017-08-20T09:48:54.417Z,1015.68
2017-08-20T09:49:54.406Z,1015.69
2017-08-20T09:50:54.389Z,1015.65
2017-08-20T09:51:54.374Z,1015.69
2017-08-20T09:52:54.358Z,1015.65
2017-08-20T09:53:54.352Z,1015.74
2017-08-20T09:54:54.335Z,1015.75
2017-08-20T09:55:54.312Z,1015.73
2017-08-20T09:56:54.298Z,1015.72
2017-08-20T09:57:54.282Z,1015.78
2017-08-20T09:58:54.269Z,1015.63
2017-08-20T09:59:54.254Z,1015.69
2017-08-20T10:00:54.233Z,1015.61
2017-08-20T10:01:54.221Z,1015.62
2017-08-20T10:02:54.211Z,1015.58
2017-08-20T10:03:54.190Z,1015.57
2017-08-20T10:04:54.179Z,1015.53
2017-08-20T10:05:54.161Z,1015.54
2017-08-20T10:06:54.151Z,1015.56
2017-08-20T10:07:54.134Z,1015.55
2017-08-20T10:08:54.120Z,1015.59
2017-08-20T10:09:54.104Z,1015.52
2017-08-20T10:10:54.089Z,1015.48
2017-08-20T10:11:54.077Z,1015.49
2017-08-20T10:12:54.066Z,1015.42
2017-08-20T10:13:54.049Z,1015.46
2017-08-20T10:14:54.036Z,1015.52
2017-08-20T10:15:54.027Z,1015.45
2017-08-20T10:16:54.059Z,1015.51
2017-08-20T10:17:53.992Z,1015.5
2017-08-20T10:18:53.983Z,1015.5
2017-08-20T10:19:53.964Z,1015.57
2017-08-20T10:20:53.948Z,1015.58
2017-08-20T10:21:53.935Z,1015.55
2017-08-20T10:22:53.918Z,1015.55
2017-08-20T10:23:53.905Z,1015.56
2017-08-20T10:24:53.882Z,1015.58
2017-08-20T10:25:53.869Z,1015.52
2017-08-20T10:26:53.853Z,1015.46
2017-08-20T10:27:53.842Z,1015.55
2017-08-20T10:28:53.819Z,1015.54
2017-08-20T10:29:53.804Z,1015.59
2017-08-20T10:30:53.786Z,1015.59
2017-08-20T10:31:53.771Z,1015.59
2017-08-20T10:32:53.752Z,1015.65
2017-08-20T10:33:53.737Z,1015.58
2017-08-20T10:34:53.717Z,1015.6
2017-08-20T10:35:53.700Z,1015.61
2017-08-20T10:36:53.685Z,1015.68
2017-08-20T10:37:53.675Z,1015.71
2017-08-20T10:38:53.649Z,1015.71
2017-08-20T10:39:53.631Z,1015.65
2017-08-20T10:40:53.612Z,1015.67
2017-08-20T10:41:53.596Z,1015.68
2017-08-20T10:42:53.578Z,1015.61
2017-08-20T10:43:53.559Z,1015.67
2017-08-20T10:44:53.541Z,1015.63
2017-08-20T10:45:53.532Z,1015.65
2017-08-20T10:46:53.503Z,1015.69
2017-08-20T10:47:53.486Z,1015.64
2017-08-20T10:48:53.484Z,1015.68
2017-08-20T10:49:53.448Z,1015.71
2017-08-20T10:50:53.431Z,1015.65
2017-08-20T10:51:53.412Z,1015.66
2017-08-20T10:52:53.394Z,1015.65
2017-08-20T10:53:53.378Z,1015.64
2017-08-20T10:54:53.358Z,1015.65
2017-08-20T10:55:53.388Z,1015.65
2017-08-20T10:56:53.321Z,1015.61
2017-08-20T10:57:53.305Z,1015.68
2017-08-20T10:58:53.287Z,1015.62
2017-08-20T10:59:53.266Z,1015.68
2017-08-20T11:00:53.250Z,1015.68
2017-08-20T11:01:53.230Z,1015.73
2017-08-20T11:02:53.213Z,1015.77
2017-08-20T11:03:53.198Z,1015.73
2017-08-20T11:04:53.177Z,1015.76
2017-08-20T11:05:53.158Z,1015.74
2017-08-20T11:06:53.138Z,1015.76
2017-08-20T11:07:53.124Z,1015.73
2017-08-20T11:08:53.104Z,1015.73
2017-08-20T11:09:53.081Z,1015.75
2017-08-20T11:10:53.067Z,1015.77
2017-08-20T11:11:53.046Z,1015.73
2017-08-20T11:12:53.030Z,1015.73
2017-08-20T11:13:53.010Z,1015.71
2017-08-20T11:14:52.993Z,1015.77
2017-08-20T11:15:52.974Z,1015.76
2017-08-20T11:16:52.956Z,1015.75
2017-08-20T11:17:52.938Z,1015.74
2017-08-20T11:18:52.924Z,1015.7
2017-08-20T11:19:52.901Z,1015.75
2017-08-20T11:20:52.884Z,1015.72
2017-08-20T11:21:52.870Z,1015.67
2017-08-20T11:22:52.847Z,1015.71
2017-08-20T11:23:52.832Z,1015.72
2017-08-20T11:24:52.808Z,1015.76
2017-08-20T11:25:52.793Z,1015.72
2017-08-20T11:26:52.773Z,1015.74
2017-08-20T11:27:52.755Z,1015.73
2017-08-20T11:28:52.740Z,1015.73
2017-08-20T11:29:52.719Z,1015.77
2017-08-20T11:30:52.707Z,1015.72
2017-08-20T11:31:52.686Z,1015.7
2017-08-20T11:32:52.667Z,1015.72
2017-08-20T11:33:52.645Z,1015.71
2017-08-20T11:34:52.630Z,1015.73
2017-08-20T11:35:52.823Z,1015.71
2017-08-20T11:36:52.593Z,1015.72
2017-08-20T11:37:52.574Z,1015.72
2017-08-20T11:38:52.556Z,1015.71
2017-08-20T11:39:52.541Z,1015.74
2017-08-20T11:40:52.521Z,1015.71
2017-08-20T11:41:52.502Z,1015.75
2017-08-20T11:42:52.487Z,1015.7
2017-08-20T11:43:52.466Z,1015.74
2017-08-20T11:44:52.449Z,1015.71
2017-08-20T11:45:52.436Z,1015.69
2017-08-20T11:46:52.416Z,1015.75
2017-08-20T11:47:52.397Z,1015.79
2017-08-20T11:48:52.377Z,1015.72
2017-08-20T11:49:52.358Z,1015.72
2017-08-20T11:50:52.341Z,1015.74
2017-08-20T11:51:52.323Z,1015.75
2017-08-20T11:52:52.306Z,1015.78
2017-08-20T11:53:52.287Z,1015.79
2017-08-20T11:54:52.270Z,1015.75
2017-08-20T11:55:52.251Z,1015.84
2017-08-20T11:56:52.236Z,1015.78
2017-08-20T11:57:52.217Z,1015.77
2017-08-20T11:58:52.207Z,1015.75
2017-08-20T11:59:52.480Z,1015.76
2017-08-20T12:00:52.163Z,1015.77
2017-08-20T12:01:52.145Z,1015.76
2017-08-20T12:02:52.131Z,1015.8
2017-08-20T12:03:52.113Z,1015.76
2017-08-20T12:04:52.104Z,1015.78
2017-08-20T12:05:52.075Z,1015.8
2017-08-20T12:06:52.058Z,1015.81
2017-08-20T12:07:52.042Z,1015.81